createdAt,value
2022-11-15T00:00:35.763Z,0.00
2022-11-15T00:01:35.805Z,0.00
2022-11-15T00:02:35.737Z,0.00
2022-11-15T00:03:35.726Z,0.00
2022-11-15T00:04:35.704Z,0.00
2022-11-15T00:05:35.707Z,0.00
2022-11-15T00:06:35.735Z,0.00
2022-11-15T00:07:54.562Z,0.00
2022-11-15T00:08:36.697Z,0.00
2022-11-15T00:09:35.777Z,0.00
2022-11-15T00:10:35.655Z,0.00
2022-11-15T00:11:35.670Z,0.00
2022-11-15T00:12:35.630Z,0.00
2022-11-15T00:13:35.968Z,0.00
2022-11-15T00:14:35.585Z,0.00
2022-11-15T00:15:35.597Z,0.00
2022-11-15T00:16:35.611Z,0.00
2022-11-15T00:17:35.587Z,0.00
2022-11-15T00:18:35.558Z,0.00
2022-11-15T00:19:35.531Z,0.00
2022-11-15T00:20:35.577Z,0.00
2022-11-15T00:21:35.499Z,0.00
2022-11-15T00:22:35.511Z,0.00
2022-11-15T00:23:35.481Z,0.00
2022-11-15T00:24:36.521Z,0.00
2022-11-15T00:25:35.473Z,0.00
2022-11-15T00:26:35.481Z,0.00
2022-11-15T00:27:35.430Z,0.00
2022-11-15T00:28:35.439Z,0.00
2022-11-15T00:29:35.422Z,0.00
2022-11-15T00:30:35.433Z,0.00
2022-11-15T00:31:35.441Z,0.00
2022-11-15T00:32:35.376Z,0.00
2022-11-15T00:33:35.438Z,0.00
2022-11-15T00:34:35.375Z,0.00
2022-11-15T00:35:35.416Z,0.00
2022-11-15T00:36:35.349Z,0.00
2022-11-15T00:37:35.341Z,0.00
2022-11-15T00:38:35.326Z,0.00
2022-11-15T00:39:35.312Z,0.00
2022-11-15T00:40:35.291Z,0.00
2022-11-15T00:41:35.301Z,0.00
2022-11-15T00:42:35.282Z,0.00
2022-11-15T00:43:35.266Z,0.00
2022-11-15T00:44:35.230Z,0.00
2022-11-15T00:45:35.255Z,0.00
2022-11-15T00:46:35.204Z,0.00
2022-11-15T00:47:35.203Z,0.00
2022-11-15T00:48:35.236Z,0.00
2022-11-15T00:49:35.175Z,0.00
2022-11-15T00:50:35.204Z,0.00
2022-11-15T00:51:35.147Z,0.00
2022-11-15T00:52:35.135Z,0.00
2022-11-15T00:53:35.405Z,0.00
2022-11-15T00:54:35.114Z,0.00
2022-11-15T00:55:35.127Z,0.00
2022-11-15T00:56:35.096Z,0.00
2022-11-15T00:57:35.086Z,0.00
2022-11-15T00:58:35.111Z,0.00
2022-11-15T00:59:35.056Z,0.00
2022-11-15T01:00:35.141Z,0.00
2022-11-15T01:01:36.088Z,0.00
2022-11-15T01:02:35.040Z,0.00
2022-11-15T01:03:35.037Z,0.00
2022-11-15T01:04:35.038Z,0.00
2022-11-15T01:05:34.987Z,0.00
2022-11-15T01:06:35.021Z,0.00
2022-11-15T01:07:35.082Z,0.00
2022-11-15T01:08:34.962Z,0.00
2022-11-15T01:09:34.989Z,0.00
2022-11-15T01:10:35.077Z,0.00
2022-11-15T01:11:34.918Z,0.00
2022-11-15T01:12:34.961Z,0.00
2022-11-15T01:13:34.912Z,0.00
2022-11-15T01:14:34.902Z,0.00
2022-11-15T01:15:34.888Z,0.00
2022-11-15T01:16:34.945Z,0.00
2022-11-15T01:17:34.868Z,0.00
2022-11-15T01:18:34.855Z,0.00
2022-11-15T01:19:34.914Z,0.00
2022-11-15T01:20:34.857Z,0.00
2022-11-15T01:21:34.839Z,0.00
2022-11-15T01:22:34.834Z,0.00
2022-11-15T01:23:35.085Z,0.00
2022-11-15T01:24:34.794Z,0.00
2022-11-15T01:25:34.751Z,0.00
2022-11-15T01:26:34.754Z,0.00
2022-11-15T01:27:34.770Z,0.00
2022-11-15T01:28:34.735Z,0.00
2022-11-15T01:29:34.736Z,0.00
2022-11-15T01:30:34.724Z,0.00
2022-11-15T01:31:34.737Z,0.00
2022-11-15T01:32:34.682Z,0.00
2022-11-15T01:33:34.677Z,0.00
2022-11-15T01:34:34.657Z,0.00
2022-11-15T01:35:34.636Z,0.00
2022-11-15T01:36:34.689Z,0.00
2022-11-15T01:37:34.603Z,0.00
2022-11-15T01:38:34.593Z,0.00
2022-11-15T01:39:34.609Z,0.00
2022-11-15T01:40:34.609Z,0.00
2022-11-15T01:41:34.578Z,0.00
2022-11-15T01:42:34.594Z,0.00
2022-11-15T01:43:34.736Z,0.00
2022-11-15T01:44:34.551Z,0.00
2022-11-15T01:45:34.535Z,0.00
2022-11-15T01:46:34.560Z,0.00
2022-11-15T01:47:34.513Z,0.00
2022-11-15T01:48:34.528Z,0.00
2022-11-15T01:49:34.477Z,0.00
2022-11-15T01:50:34.477Z,0.00
2022-11-15T01:51:34.477Z,0.00
2022-11-15T01:52:34.440Z,0.00
2022-11-15T01:53:34.635Z,0.00
2022-11-15T01:54:34.480Z,0.00
2022-11-15T01:55:34.691Z,0.00
2022-11-15T01:56:34.411Z,0.00
2022-11-15T01:57:34.400Z,0.00
2022-11-15T01:58:34.382Z,0.00
2022-11-15T01:59:34.382Z,0.00
2022-11-15T02:00:34.422Z,0.00
2022-11-15T02:01:34.363Z,0.00
2022-11-15T02:02:34.333Z,0.00
2022-11-15T02:03:34.355Z,0.00
2022-11-15T02:04:34.311Z,0.00
2022-11-15T02:05:34.338Z,0.00
2022-11-15T02:06:34.282Z,0.00
2022-11-15T02:07:34.326Z,0.00
2022-11-15T02:08:34.248Z,0.00
2022-11-15T02:09:34.242Z,0.00
2022-11-15T02:10:34.361Z,0.00
2022-11-15T02:11:34.225Z,0.00
2022-11-15T02:12:34.216Z,0.00
2022-11-15T02:13:34.346Z,0.00
2022-11-15T02:14:34.208Z,0.00
2022-11-15T02:15:34.185Z,0.00
2022-11-15T02:16:34.205Z,0.00
2022-11-15T02:17:34.163Z,0.00
2022-11-15T02:18:34.142Z,0.00
2022-11-15T02:19:34.136Z,0.00
2022-11-15T02:20:34.133Z,0.00
2022-11-15T02:21:34.112Z,0.00
2022-11-15T02:22:34.126Z,0.00
2022-11-15T02:23:34.419Z,0.00
2022-11-15T02:24:34.062Z,0.00
2022-11-15T02:25:34.072Z,0.00
2022-11-15T02:26:34.053Z,0.00
2022-11-15T02:27:34.024Z,0.00
2022-11-15T02:28:34.077Z,0.00
2022-11-15T02:29:34.057Z,0.00
2022-11-15T02:30:34.025Z,0.00
2022-11-15T02:31:34.018Z,0.00
2022-11-15T02:32:34.025Z,0.00
2022-11-15T02:33:34.215Z,0.00
2022-11-15T02:34:34.001Z,0.00
2022-11-15T02:35:33.968Z,0.00
2022-11-15T02:36:33.933Z,0.00
2022-11-15T02:37:33.937Z,0.00
2022-11-15T02:38:33.908Z,0.00
2022-11-15T02:39:33.949Z,0.00
2022-11-15T02:40:33.950Z,0.00
2022-11-15T02:41:33.868Z,0.00
2022-11-15T02:42:33.889Z,0.00
2022-11-15T02:43:34.075Z,0.00
2022-11-15T02:44:33.857Z,0.00
2022-11-15T02:45:33.838Z,0.00
2022-11-15T02:46:33.807Z,0.00
2022-11-15T02:47:33.853Z,0.00
2022-11-15T02:48:33.818Z,0.00
2022-11-15T02:49:33.786Z,0.00
2022-11-15T02:50:33.774Z,0.00
2022-11-15T02:51:33.780Z,0.00
2022-11-15T02:52:33.770Z,0.00
2022-11-15T02:53:33.974Z,0.00
2022-11-15T02:54:33.739Z,0.00
2022-11-15T02:55:33.725Z,0.00
2022-11-15T02:56:33.712Z,0.00
2022-11-15T02:57:33.688Z,0.00
2022-11-15T02:58:33.702Z,0.00
2022-11-15T02:59:33.670Z,0.00
2022-11-15T03:00:33.733Z,0.00
2022-11-15T03:01:33.673Z,0.00
2022-11-15T03:02:33.633Z,0.00
2022-11-15T03:03:33.968Z,0.00
2022-11-15T03:04:33.612Z,0.00
2022-11-15T03:05:33.643Z,0.00
2022-11-15T03:06:33.601Z,0.00
2022-11-15T03:07:33.680Z,0.00
2022-11-15T03:08:33.561Z,0.00
2022-11-15T03:09:33.565Z,0.00
2022-11-15T03:10:33.566Z,0.00
2022-11-15T03:11:33.546Z,0.00
2022-11-15T03:12:33.528Z,0.00
2022-11-15T03:13:33.818Z,0.00
2022-11-15T03:14:33.505Z,0.00
2022-11-15T03:15:33.486Z,0.00
2022-11-15T03:16:33.455Z,0.00
2022-11-15T03:17:33.463Z,0.00
2022-11-15T03:18:33.436Z,0.00
2022-11-15T03:19:33.469Z,0.00
2022-11-15T03:20:33.415Z,0.00
2022-11-15T03:21:33.432Z,0.00
2022-11-15T03:22:33.394Z,0.00
2022-11-15T03:23:33.762Z,0.00
2022-11-15T03:24:33.408Z,0.00
2022-11-15T03:25:33.387Z,0.00
2022-11-15T03:26:33.349Z,0.00
2022-11-15T03:27:33.380Z,0.00
2022-11-15T03:28:33.348Z,0.00
2022-11-15T03:29:33.330Z,0.00
2022-11-15T03:30:33.360Z,0.00
2022-11-15T03:31:33.310Z,0.00
2022-11-15T03:32:33.290Z,0.00
2022-11-15T03:33:33.640Z,0.00
2022-11-15T03:34:33.257Z,0.00
2022-11-15T03:35:33.289Z,0.00
2022-11-15T03:36:33.254Z,0.00
2022-11-15T03:37:33.270Z,0.00
2022-11-15T03:38:33.247Z,0.00
2022-11-15T03:39:33.188Z,0.00
2022-11-15T03:40:33.178Z,0.00
2022-11-15T03:41:33.181Z,0.00
2022-11-15T03:42:33.202Z,0.00
2022-11-15T03:43:33.495Z,0.00
2022-11-15T03:44:33.142Z,0.00
2022-11-15T03:45:33.136Z,0.00
2022-11-15T03:46:33.122Z,0.00
2022-11-15T03:47:33.160Z,0.00
2022-11-15T03:48:33.089Z,0.00
2022-11-15T03:49:33.144Z,0.00
2022-11-15T03:50:33.081Z,0.00
2022-11-15T03:51:33.050Z,0.00
2022-11-15T03:52:33.063Z,0.00
2022-11-15T03:53:33.427Z,0.00
2022-11-15T03:54:33.051Z,0.00
2022-11-15T03:55:33.012Z,0.00
2022-11-15T03:56:32.999Z,0.00
2022-11-15T03:57:32.994Z,0.00
2022-11-15T03:58:32.985Z,0.00
2022-11-15T03:59:32.974Z,0.00
2022-11-15T04:00:32.980Z,0.00
2022-11-15T04:01:32.989Z,0.00
2022-11-15T04:02:32.947Z,0.00
2022-11-15T04:03:33.228Z,0.00
2022-11-15T04:04:32.906Z,0.00
2022-11-15T04:05:32.904Z,0.00
2022-11-15T04:06:32.904Z,0.00
2022-11-15T04:07:32.927Z,0.00
2022-11-15T04:08:32.898Z,0.00
2022-11-15T04:09:32.857Z,0.00
2022-11-15T04:10:32.847Z,0.00
2022-11-15T04:11:32.861Z,0.00
2022-11-15T04:12:32.817Z,0.00
2022-11-15T04:13:33.265Z,0.00
2022-11-15T04:14:32.825Z,0.00
2022-11-15T04:15:32.779Z,0.00
2022-11-15T04:16:32.769Z,0.00
2022-11-15T04:17:32.761Z,0.00
2022-11-15T04:18:32.750Z,0.00
2022-11-15T04:19:32.736Z,0.00
2022-11-15T04:20:32.727Z,0.00
2022-11-15T04:21:32.716Z,0.00
2022-11-15T04:22:32.717Z,0.00
2022-11-15T04:23:33.040Z,0.00
2022-11-15T04:24:32.678Z,0.00
2022-11-15T04:25:32.700Z,0.00
2022-11-15T04:26:32.650Z,0.00
2022-11-15T04:27:32.652Z,0.00
2022-11-15T04:28:32.608Z,0.00
2022-11-15T04:29:32.622Z,0.00
2022-11-15T04:30:32.600Z,0.00
2022-11-15T04:31:32.638Z,0.00
2022-11-15T04:32:32.568Z,0.00
2022-11-15T04:33:32.869Z,0.00
2022-11-15T04:34:32.560Z,0.00
2022-11-15T04:35:32.540Z,0.00
2022-11-15T04:36:32.575Z,0.00
2022-11-15T04:37:32.521Z,0.00
2022-11-15T04:38:32.513Z,0.00
2022-11-15T04:39:32.496Z,0.00
2022-11-15T04:40:32.503Z,0.00
2022-11-15T04:41:32.471Z,0.00
2022-11-15T04:42:32.500Z,0.00
2022-11-15T04:43:32.934Z,0.00
2022-11-15T04:44:32.435Z,0.00
2022-11-15T04:45:32.470Z,0.00
2022-11-15T04:46:32.415Z,0.00
2022-11-15T04:47:32.411Z,0.00
2022-11-15T04:48:32.397Z,0.00
2022-11-15T04:49:32.387Z,0.00
2022-11-15T04:50:32.382Z,0.00
2022-11-15T04:51:32.390Z,0.00
2022-11-15T04:52:32.345Z,0.00
2022-11-15T04:53:32.733Z,0.00
2022-11-15T04:54:32.305Z,0.00
2022-11-15T04:55:32.307Z,0.00
2022-11-15T04:56:32.324Z,0.00
2022-11-15T04:57:32.305Z,0.00
2022-11-15T04:58:32.254Z,0.00
2022-11-15T04:59:32.287Z,0.00
2022-11-15T05:00:32.257Z,0.00
2022-11-15T05:01:32.243Z,0.00
2022-11-15T05:02:32.267Z,0.00
2022-11-15T05:03:32.657Z,0.00
2022-11-15T05:04:32.195Z,0.00
2022-11-15T05:05:32.198Z,0.00
2022-11-15T05:06:32.188Z,0.00
2022-11-15T05:07:32.215Z,0.00
2022-11-15T05:08:32.191Z,0.00
2022-11-15T05:09:32.146Z,0.00
2022-11-15T05:10:32.138Z,0.00
2022-11-15T05:11:32.132Z,0.00
2022-11-15T05:12:32.116Z,0.00
2022-11-15T05:13:32.456Z,0.00
2022-11-15T05:14:32.067Z,0.00
2022-11-15T05:15:32.074Z,0.00
2022-11-15T05:16:32.060Z,0.00
2022-11-15T05:17:32.058Z,0.00
2022-11-15T05:18:32.051Z,0.00
2022-11-15T05:19:32.068Z,0.00
2022-11-15T05:20:32.012Z,0.00
2022-11-15T05:21:32.026Z,0.00
2022-11-15T05:22:31.991Z,0.00
2022-11-15T05:23:32.194Z,0.00
2022-11-15T05:24:32.000Z,0.00
2022-11-15T05:25:31.951Z,0.00
2022-11-15T05:26:31.958Z,0.00
2022-11-15T05:27:31.939Z,0.00
2022-11-15T05:28:31.920Z,0.00
2022-11-15T05:29:31.899Z,0.00
2022-11-15T05:30:31.942Z,0.00
2022-11-15T05:31:31.904Z,0.00
2022-11-15T05:32:31.903Z,0.00
2022-11-15T05:33:32.182Z,0.00
2022-11-15T05:34:31.851Z,0.00
2022-11-15T05:35:31.873Z,0.00
2022-11-15T05:36:31.824Z,0.00
2022-11-15T05:37:31.845Z,0.00
2022-11-15T05:38:31.814Z,0.00
2022-11-15T05:39:31.845Z,0.00
2022-11-15T05:40:31.779Z,0.00
2022-11-15T05:41:31.826Z,0.00
2022-11-15T05:42:31.763Z,0.00
2022-11-15T05:43:32.027Z,0.00
2022-11-15T05:44:31.731Z,0.00
2022-11-15T05:45:31.758Z,0.00
2022-11-15T05:46:31.735Z,0.00
2022-11-15T05:47:31.722Z,0.00
2022-11-15T05:48:31.687Z,0.00
2022-11-15T05:49:31.684Z,0.00
2022-11-15T05:50:31.678Z,0.00
2022-11-15T05:51:31.684Z,4.00
2022-11-15T05:52:31.677Z,4.00
2022-11-15T05:53:31.949Z,0.00
2022-11-15T05:54:31.653Z,0.00
2022-11-15T05:55:31.608Z,4.00
2022-11-15T05:56:31.609Z,0.00
2022-11-15T05:57:31.618Z,4.00
2022-11-15T05:58:31.578Z,4.00
2022-11-15T05:59:31.549Z,4.00
2022-11-15T06:00:31.589Z,4.00
2022-11-15T06:01:31.561Z,4.00
2022-11-15T06:02:31.610Z,8.00
2022-11-15T06:03:31.898Z,8.00
2022-11-15T06:04:31.521Z,12.00
2022-11-15T06:05:31.530Z,12.00
2022-11-15T06:06:31.486Z,16.00
2022-11-15T06:07:31.521Z,20.00
2022-11-15T06:08:31.501Z,20.00
2022-11-15T06:09:31.458Z,28.00
2022-11-15T06:10:31.460Z,32.00
2022-11-15T06:11:31.431Z,36.00
2022-11-15T06:12:31.428Z,40.00
2022-11-15T06:13:31.633Z,48.00
2022-11-15T06:14:31.420Z,56.00
2022-11-15T06:15:31.449Z,64.00
2022-11-15T06:16:31.371Z,68.00
2022-11-15T06:17:31.370Z,80.00
2022-11-15T06:18:31.353Z,88.00
2022-11-15T06:19:31.340Z,104.00
2022-11-15T06:20:31.351Z,116.00
2022-11-15T06:21:31.377Z,128.00
2022-11-15T06:22:31.314Z,144.00
2022-11-15T06:23:31.497Z,156.00
2022-11-15T06:24:31.260Z,176.00
2022-11-15T06:25:31.274Z,192.00
2022-11-15T06:26:31.372Z,208.00
2022-11-15T06:27:31.233Z,228.00
2022-11-15T06:28:31.231Z,248.00
2022-11-15T06:29:31.235Z,268.00
2022-11-15T06:30:31.206Z,292.00
2022-11-15T06:31:31.203Z,312.00
2022-11-15T06:32:31.217Z,340.00
2022-11-15T06:33:31.411Z,364.00
2022-11-15T06:34:31.142Z,392.00
2022-11-15T06:35:31.133Z,420.00
2022-11-15T06:36:31.176Z,448.00
2022-11-15T06:37:31.208Z,476.00
2022-11-15T06:38:31.140Z,508.00
2022-11-15T06:39:31.108Z,540.00
2022-11-15T06:40:31.116Z,568.00
2022-11-15T06:41:31.078Z,600.00
2022-11-15T06:42:31.090Z,636.00
2022-11-15T06:43:31.379Z,664.00
2022-11-15T06:44:31.077Z,704.00
2022-11-15T06:45:31.073Z,736.00
2022-11-15T06:46:31.061Z,768.00
2022-11-15T06:47:31.068Z,800.00
2022-11-15T06:48:31.010Z,840.00
2022-11-15T06:49:31.018Z,876.00
2022-11-15T06:50:30.982Z,912.00
2022-11-15T06:51:30.970Z,948.00
2022-11-15T06:52:30.983Z,984.00
2022-11-15T06:53:31.165Z,1020.00
2022-11-15T06:54:30.949Z,1056.00
2022-11-15T06:55:30.964Z,1092.00
2022-11-15T06:56:30.900Z,1128.00
2022-11-15T06:57:30.943Z,1164.00
2022-11-15T06:58:30.888Z,1200.00
2022-11-15T06:59:30.887Z,1236.00
2022-11-15T07:00:30.853Z,1264.00
2022-11-15T07:01:30.855Z,1304.00
2022-11-15T07:02:30.862Z,1336.00
2022-11-15T07:03:31.185Z,1372.00
2022-11-15T07:04:30.822Z,1400.00
2022-11-15T07:05:30.803Z,1432.00
2022-11-15T07:06:30.769Z,1468.00
2022-11-15T07:07:30.911Z,1500.00
2022-11-15T07:08:30.804Z,1532.00
2022-11-15T07:09:30.817Z,1564.00
2022-11-15T07:10:30.721Z,1596.00
2022-11-15T07:11:30.755Z,1628.00
2022-11-15T07:12:30.719Z,1656.00
2022-11-15T07:13:31.045Z,1688.00
2022-11-15T07:14:30.715Z,1716.00
2022-11-15T07:15:30.741Z,1748.00
2022-11-15T07:16:30.694Z,1780.00
2022-11-15T07:17:30.655Z,1808.00
2022-11-15T07:18:30.656Z,1840.00
2022-11-15T07:19:30.640Z,1868.00
2022-11-15T07:20:30.648Z,1900.00
2022-11-15T07:21:30.625Z,1924.00
2022-11-15T07:22:30.598Z,1952.00
2022-11-15T07:23:30.824Z,1984.00
2022-11-15T07:24:30.577Z,2012.00
2022-11-15T07:25:30.561Z,2044.00
2022-11-15T07:26:30.610Z,2068.00
2022-11-15T07:27:30.528Z,2092.00
2022-11-15T07:28:30.536Z,2124.00
2022-11-15T07:29:30.539Z,2144.00
2022-11-15T07:30:30.536Z,2180.00
2022-11-15T07:31:30.524Z,2200.00
2022-11-15T07:32:30.568Z,2232.00
2022-11-15T07:33:30.756Z,2260.00
2022-11-15T07:34:30.498Z,2300.00
2022-11-15T07:35:30.449Z,2316.00
2022-11-15T07:36:30.469Z,2360.00
2022-11-15T07:37:30.426Z,2372.00
2022-11-15T07:38:30.407Z,2392.00
2022-11-15T07:39:30.468Z,2424.00
2022-11-15T07:40:30.463Z,2460.00
2022-11-15T07:41:30.435Z,2484.00
2022-11-15T07:42:30.389Z,2512.00
2022-11-15T07:43:30.719Z,2536.00
2022-11-15T07:44:30.372Z,2572.00
2022-11-15T07:45:30.392Z,2592.00
2022-11-15T07:46:30.308Z,2636.00
2022-11-15T07:47:30.311Z,2680.00
2022-11-15T07:48:42.622Z,2684.00
2022-11-15T07:49:31.321Z,2692.00
2022-11-15T07:50:30.346Z,2740.00
2022-11-15T07:51:30.264Z,2740.00
2022-11-15T07:52:30.290Z,2760.00
2022-11-15T07:53:30.681Z,2800.00
2022-11-15T07:54:30.213Z,2800.00
2022-11-15T07:55:30.231Z,2832.00
2022-11-15T07:56:30.243Z,2852.00
2022-11-15T07:57:30.179Z,2872.00
2022-11-15T07:58:30.213Z,2912.00
2022-11-15T07:59:30.199Z,2900.00
2022-11-15T08:00:30.207Z,2960.00
2022-11-15T08:01:30.253Z,2964.00
2022-11-15T08:02:30.700Z,2980.00
2022-11-15T08:03:30.468Z,3004.00
2022-11-15T08:04:30.106Z,3020.00
2022-11-15T08:05:30.132Z,3040.00
2022-11-15T08:06:30.100Z,3060.00
2022-11-15T08:07:30.109Z,3080.00
2022-11-15T08:08:30.058Z,3084.00
2022-11-15T08:09:30.093Z,3100.00
2022-11-15T08:10:30.173Z,3136.00
2022-11-15T08:11:30.042Z,3152.00
2022-11-15T08:12:30.149Z,3136.00
2022-11-15T08:13:30.233Z,3160.00
2022-11-15T08:14:30.034Z,3200.00
2022-11-15T08:15:29.972Z,3196.00
2022-11-15T08:16:29.998Z,3224.00
2022-11-15T08:17:29.990Z,3256.00
2022-11-15T08:18:29.970Z,3284.00
2022-11-15T08:19:29.956Z,3272.00
2022-11-15T08:20:29.947Z,3340.00
2022-11-15T08:21:29.935Z,3376.00
2022-11-15T08:22:29.904Z,3396.00
2022-11-15T08:23:30.326Z,3412.00
2022-11-15T08:24:29.869Z,3480.00
2022-11-15T08:25:29.846Z,3456.00
2022-11-15T08:26:29.850Z,3484.00
2022-11-15T08:27:29.887Z,3536.00
2022-11-15T08:28:29.876Z,3532.00
2022-11-15T08:29:29.849Z,3580.00
2022-11-15T08:30:29.814Z,3600.00
2022-11-15T08:31:29.800Z,3612.00
2022-11-15T08:32:29.811Z,3672.00
2022-11-15T08:33:30.168Z,3680.00
2022-11-15T08:34:29.738Z,3684.00
2022-11-15T08:35:29.782Z,3732.00
2022-11-15T08:36:36.043Z,3764.00
2022-11-15T08:37:30.717Z,3788.00
2022-11-15T08:38:30.108Z,3784.00
2022-11-15T08:39:29.774Z,3804.00
2022-11-15T08:40:29.853Z,3836.00
2022-11-15T08:41:29.683Z,3860.00
2022-11-15T08:42:29.794Z,3868.00
2022-11-15T08:43:30.076Z,3896.00
2022-11-15T08:44:29.684Z,3916.00
2022-11-15T08:45:29.635Z,3948.00
2022-11-15T08:46:29.654Z,3944.00
2022-11-15T08:47:29.624Z,3980.00
2022-11-15T08:48:29.823Z,4004.00
2022-11-15T08:49:29.612Z,4028.00
2022-11-15T08:50:29.576Z,4060.00
2022-11-15T08:51:29.562Z,4080.00
2022-11-15T08:52:29.635Z,4096.00
2022-11-15T08:53:29.552Z,4104.00
2022-11-15T08:54:29.542Z,4128.00
2022-11-15T08:55:29.534Z,4140.00
2022-11-15T08:56:29.502Z,4168.00
2022-11-15T08:57:29.673Z,4172.00
2022-11-15T08:58:29.825Z,4212.00
2022-11-15T08:59:29.489Z,4224.00
2022-11-15T09:00:29.453Z,4248.00
2022-11-15T09:01:29.587Z,4268.00
2022-11-15T09:02:29.467Z,4296.00
2022-11-15T09:03:29.475Z,4316.00
2022-11-15T09:04:29.427Z,4352.00
2022-11-15T09:05:29.399Z,4384.00
2022-11-15T09:06:29.458Z,4404.00
2022-11-15T09:07:29.433Z,4464.00
2022-11-15T09:09:30.348Z,4548.00
2022-11-15T09:10:29.360Z,4604.00
2022-11-15T09:11:29.343Z,4680.00
2022-11-15T09:12:29.348Z,4776.00
2022-11-15T09:13:29.333Z,4900.00
2022-11-15T09:14:29.377Z,5080.00
2022-11-15T09:15:29.340Z,5384.00
2022-11-15T09:16:29.305Z,5724.00
2022-11-15T09:17:29.282Z,5892.00
2022-11-15T09:18:29.512Z,6072.00
2022-11-15T09:19:29.271Z,6420.00
2022-11-15T09:20:29.219Z,7204.00
2022-11-15T09:21:29.233Z,7972.00
2022-11-15T09:22:29.292Z,11672.00
2022-11-15T09:23:29.193Z,19168.00
2022-11-15T09:24:32.788Z,22336.00
2022-11-15T09:25:29.196Z,22080.00
2022-11-15T09:26:29.150Z,21984.00
2022-11-15T09:27:29.190Z,22080.00
2022-11-15T09:28:29.613Z,21984.00
2022-11-15T09:29:29.172Z,22592.00
2022-11-15T09:30:29.221Z,23296.00
2022-11-15T09:31:29.113Z,24160.00
2022-11-15T09:32:29.995Z,24992.00
2022-11-15T09:33:29.509Z,25472.00
2022-11-15T09:34:29.153Z,25184.00
2022-11-15T09:35:29.072Z,24896.00
2022-11-15T09:36:29.071Z,23680.00
2022-11-15T09:37:29.047Z,23360.00
2022-11-15T09:38:29.485Z,23776.00
2022-11-15T09:39:30.108Z,23808.00
2022-11-15T09:40:29.023Z,23456.00
2022-11-15T09:41:29.009Z,23328.00
2022-11-15T09:42:28.996Z,23520.00
2022-11-15T09:43:29.038Z,22912.00
2022-11-15T09:44:29.011Z,22784.00
2022-11-15T09:45:28.940Z,23648.00
2022-11-15T09:46:28.981Z,24480.00
2022-11-15T09:47:28.960Z,24032.00
2022-11-15T09:48:29.665Z,21952.00
2022-11-15T09:49:28.957Z,13544.00
2022-11-15T09:50:28.902Z,7136.00
2022-11-15T09:51:28.869Z,7064.00
2022-11-15T09:52:28.861Z,7192.00
2022-11-15T09:55:00.012Z,7188.00
2022-11-15T09:55:38.955Z,6912.00
2022-11-15T09:56:40.457Z,6872.00
2022-11-15T09:57:38.936Z,6952.00
2022-11-15T09:58:38.924Z,7056.00
2022-11-15T09:59:38.998Z,7196.00
2022-11-15T10:00:46.305Z,7376.00
2022-11-15T10:01:40.968Z,7604.00
2022-11-15T10:02:38.888Z,7888.00
2022-11-15T10:03:38.876Z,8204.00
2022-11-15T10:04:38.881Z,8484.00
2022-11-15T10:05:39.126Z,8940.00
2022-11-15T10:06:39.198Z,10756.00
2022-11-15T10:07:38.867Z,13416.00
2022-11-15T10:08:38.820Z,15904.00
2022-11-15T10:09:38.789Z,17280.00
2022-11-15T10:10:38.817Z,17408.00
2022-11-15T10:11:39.607Z,17440.00
2022-11-15T10:12:38.773Z,17472.00
2022-11-15T10:13:38.742Z,17440.00
2022-11-15T10:14:38.751Z,17504.00
2022-11-15T10:15:38.755Z,17504.00
2022-11-15T10:16:38.723Z,17408.00
2022-11-15T10:17:38.689Z,17408.00
2022-11-15T10:18:38.694Z,17376.00
2022-11-15T10:19:38.694Z,17376.00
2022-11-15T10:20:38.690Z,17408.00
2022-11-15T10:21:38.671Z,17408.00
2022-11-15T10:22:38.636Z,17408.00
2022-11-15T10:23:38.730Z,17440.00
2022-11-15T10:24:38.650Z,17472.00
2022-11-15T10:25:38.623Z,17440.00
2022-11-15T10:26:38.601Z,17440.00
2022-11-15T10:27:38.628Z,17536.00
2022-11-15T10:28:38.602Z,17536.00
2022-11-15T10:29:38.553Z,17536.00
2022-11-15T10:30:38.576Z,17568.00
2022-11-15T10:31:38.563Z,17536.00
2022-11-15T10:32:38.584Z,17600.00
2022-11-15T10:33:38.618Z,17632.00
2022-11-15T10:34:38.681Z,17472.00
2022-11-15T10:35:38.504Z,17376.00
2022-11-15T10:36:39.488Z,17504.00
2022-11-15T10:37:38.478Z,17408.00
2022-11-15T10:38:38.507Z,17728.00
2022-11-15T10:39:38.463Z,17568.00
2022-11-15T10:40:38.438Z,17440.00
2022-11-15T10:41:38.472Z,17024.00
2022-11-15T10:42:38.426Z,16992.00
2022-11-15T10:43:38.447Z,16800.00
2022-11-15T10:44:38.421Z,16832.00
2022-11-15T10:45:38.380Z,16672.00
2022-11-15T10:46:47.483Z,16672.00
2022-11-15T10:47:39.962Z,16640.00
2022-11-15T10:48:38.399Z,16576.00
2022-11-15T10:49:38.391Z,16224.00
2022-11-15T10:50:38.346Z,15840.00
2022-11-15T10:51:38.308Z,15584.00
2022-11-15T10:52:38.342Z,15520.00
2022-11-15T10:53:38.317Z,16704.00
2022-11-15T10:54:38.325Z,16576.00
2022-11-15T10:55:38.316Z,16640.00
2022-11-15T10:56:38.287Z,16768.00
2022-11-15T10:57:38.245Z,17280.00
2022-11-15T10:58:38.258Z,17664.00
2022-11-15T10:59:39.312Z,17344.00
2022-11-15T11:00:38.274Z,17248.00
2022-11-15T11:01:38.242Z,16352.00
2022-11-15T11:02:38.195Z,15840.00
2022-11-15T11:03:38.185Z,15520.00
2022-11-15T11:04:38.187Z,15360.00
2022-11-15T11:05:42.083Z,14912.00
2022-11-15T11:06:38.221Z,14688.00
2022-11-15T11:07:38.188Z,14528.00
2022-11-15T11:08:38.121Z,14368.00
2022-11-15T11:09:38.139Z,14912.00
2022-11-15T11:10:51.408Z,15392.00
2022-11-15T11:11:39.120Z,15456.00
2022-11-15T11:12:38.129Z,15520.00
2022-11-15T11:13:38.109Z,15872.00
2022-11-15T11:14:38.049Z,15904.00
2022-11-15T11:15:38.079Z,15392.00
2022-11-15T11:16:39.253Z,15680.00
2022-11-15T11:17:38.025Z,16672.00
2022-11-15T11:18:38.077Z,16736.00
2022-11-15T11:19:37.992Z,16128.00
2022-11-15T11:20:37.995Z,15776.00
2022-11-15T11:21:40.142Z,14912.00
2022-11-15T11:22:37.966Z,16832.00
2022-11-15T11:23:37.933Z,18816.00
2022-11-15T11:24:37.989Z,20768.00
2022-11-15T11:25:37.954Z,23872.00
2022-11-15T11:26:37.904Z,26144.00
2022-11-15T11:27:37.948Z,27744.00
2022-11-15T11:28:37.885Z,29632.00
2022-11-15T11:29:37.905Z,30048.00
2022-11-15T11:30:37.936Z,30048.00
2022-11-15T11:31:37.858Z,29088.00
2022-11-15T11:32:37.867Z,29984.00
2022-11-15T11:33:37.905Z,33152.00
2022-11-15T11:34:37.831Z,35072.00
2022-11-15T11:35:37.820Z,34464.00
2022-11-15T11:36:37.873Z,33312.00
2022-11-15T11:37:37.792Z,31424.00
2022-11-15T11:38:37.823Z,29280.00
2022-11-15T11:39:37.772Z,26560.00
2022-11-15T11:40:37.761Z,24864.00
2022-11-15T11:41:37.772Z,24704.00
2022-11-15T11:42:37.786Z,25472.00
2022-11-15T11:43:37.746Z,26304.00
2022-11-15T11:44:37.727Z,26656.00
2022-11-15T11:45:37.751Z,27264.00
2022-11-15T11:46:37.673Z,27712.00
2022-11-15T11:47:37.731Z,27808.00
2022-11-15T11:48:37.652Z,27648.00
2022-11-15T11:49:37.677Z,27840.00
2022-11-15T11:50:37.632Z,27648.00
2022-11-15T11:51:37.619Z,27104.00
2022-11-15T11:52:37.612Z,26240.00
2022-11-15T11:53:37.644Z,26528.00
2022-11-15T11:54:37.673Z,27488.00
2022-11-15T11:55:37.576Z,29024.00
2022-11-15T11:56:37.593Z,28896.00
2022-11-15T11:57:37.575Z,28384.00
2022-11-15T11:58:37.598Z,26944.00
2022-11-15T11:59:37.575Z,26560.00
2022-11-15T12:00:37.526Z,26208.00
2022-11-15T12:01:37.679Z,25216.00
2022-11-15T12:02:37.650Z,24480.00
2022-11-15T12:03:37.538Z,23648.00
2022-11-15T12:04:37.483Z,22848.00
2022-11-15T12:05:37.534Z,22528.00
2022-11-15T12:06:37.464Z,21568.00
2022-11-15T12:07:37.502Z,20544.00
2022-11-15T12:08:37.490Z,19712.00
2022-11-15T12:09:37.443Z,19904.00
2022-11-15T12:10:37.423Z,20672.00
2022-11-15T12:11:37.434Z,22016.00
2022-11-15T12:12:37.425Z,23040.00
2022-11-15T12:13:37.392Z,24352.00
2022-11-15T12:14:37.405Z,25248.00
2022-11-15T12:15:37.410Z,24960.00
2022-11-15T12:16:37.346Z,24032.00
2022-11-15T12:17:37.339Z,22656.00
2022-11-15T12:18:37.381Z,22112.00
2022-11-15T12:19:37.365Z,21536.00
2022-11-15T12:20:37.324Z,20512.00
2022-11-15T12:21:37.291Z,19264.00
2022-11-15T12:22:37.307Z,18016.00
2022-11-15T12:23:37.289Z,17024.00
2022-11-15T12:24:37.296Z,16736.00
2022-11-15T12:25:37.228Z,17088.00
2022-11-15T12:26:37.231Z,17792.00
2022-11-15T12:27:37.231Z,18944.00
2022-11-15T12:28:37.257Z,19936.00
2022-11-15T12:29:37.212Z,21344.00
2022-11-15T12:30:37.238Z,22496.00
2022-11-15T12:31:37.169Z,23072.00
2022-11-15T12:32:37.157Z,17760.00
2022-11-15T12:33:37.151Z,12656.00
2022-11-15T12:34:37.171Z,12000.00
2022-11-15T12:35:37.186Z,8864.00
2022-11-15T12:36:37.126Z,7652.00
2022-11-15T12:37:37.119Z,5400.00